createdAt,value
2022-08-17T00:01:56.558Z,5.25
2022-08-17T00:03:59.011Z,6.30
2022-08-17T00:06:12.165Z,8.40
2022-08-17T00:08:16.930Z,5.82
2022-08-17T00:10:18.914Z,5.75
2022-08-17T00:12:40.764Z,6.65
2022-08-17T00:14:45.068Z,5.82
2022-08-17T00:16:52.613Z,5.57
2022-08-17T00:19:07.767Z,5.22
2022-08-17T00:21:11.794Z,5.68
2022-08-17T00:23:17.139Z,8.85
2022-08-17T00:25:20.201Z,5.68
2022-08-17T00:27:22.386Z,8.80
2022-08-17T00:29:24.793Z,6.63
2022-08-17T00:31:26.737Z,5.10
2022-08-17T00:33:33.822Z,5.03
2022-08-17T00:35:35.783Z,6.40
2022-08-17T00:37:37.768Z,5.35
2022-08-17T00:39:39.939Z,7.10
2022-08-17T00:41:42.507Z,5.22
2022-08-17T00:43:51.615Z,5.90
2022-08-17T00:45:54.149Z,5.28
2022-08-17T00:47:56.115Z,4.75
2022-08-17T00:49:57.981Z,7.57
2022-08-17T00:52:11.946Z,6.82
2022-08-17T00:54:32.573Z,6.90
2022-08-17T00:56:47.208Z,8.00
2022-08-17T00:58:50.073Z,5.65
2022-08-17T01:00:52.310Z,5.82
2022-08-17T01:02:58.197Z,5.65
2022-08-17T01:05:00.493Z,5.20
2022-08-17T01:07:04.677Z,6.32
2022-08-17T01:09:08.753Z,7.20
2022-08-17T01:11:10.570Z,5.88
2022-08-17T01:13:13.086Z,8.40
2022-08-17T01:15:16.112Z,8.45
2022-08-17T01:17:17.838Z,7.95
2022-08-17T01:19:25.437Z,5.22
2022-08-17T01:21:34.107Z,8.13
2022-08-17T01:23:36.511Z,6.57
2022-08-17T01:25:38.313Z,6.45
2022-08-17T01:27:41.528Z,8.23
2022-08-17T01:29:47.192Z,12.25
2022-08-17T01:31:52.606Z,8.88
2022-08-17T01:33:54.585Z,8.30
2022-08-17T01:35:56.662Z,7.75
2022-08-17T01:37:58.986Z,7.60
2022-08-17T01:40:07.680Z,6.03
2022-08-17T01:42:25.106Z,5.63
2022-08-17T01:44:27.955Z,5.57
2022-08-17T01:46:33.617Z,8.07
2022-08-17T01:48:38.298Z,5.38
2022-08-17T01:50:42.161Z,5.30
2022-08-17T01:52:45.596Z,8.77
2022-08-17T01:54:48.213Z,5.82
2022-08-17T01:56:51.624Z,8.23
2022-08-17T01:58:53.490Z,4.53
2022-08-17T02:01:00.310Z,7.93
2022-08-17T02:03:03.786Z,10.50
2022-08-17T02:05:06.857Z,6.00
2022-08-17T02:07:08.548Z,6.05
2022-08-17T02:09:16.473Z,5.78
2022-08-17T02:11:21.047Z,7.70
2022-08-17T02:13:23.235Z,6.75
2022-08-17T02:15:25.497Z,9.02
2022-08-17T02:17:27.359Z,4.97
2022-08-17T02:19:31.584Z,9.30
2022-08-17T02:21:34.180Z,6.35
2022-08-17T02:23:38.529Z,6.75
2022-08-17T02:25:43.329Z,7.35
2022-08-17T02:27:45.459Z,7.40
2022-08-17T02:29:47.491Z,5.78
2022-08-17T02:31:49.796Z,6.93
2022-08-17T02:34:00.542Z,8.35
2022-08-17T02:36:09.367Z,6.25
2022-08-17T02:38:11.296Z,8.57
2022-08-17T02:40:13.195Z,11.30
2022-08-17T02:42:15.421Z,6.63
2022-08-17T02:44:35.415Z,6.90
2022-08-17T02:46:39.020Z,6.32
2022-08-17T02:48:40.918Z,10.18
2022-08-17T02:50:43.126Z,5.25
2022-08-17T02:52:48.870Z,6.00
2022-08-17T02:55:09.667Z,9.73
2022-08-17T02:57:11.808Z,13.25
2022-08-17T02:59:14.031Z,5.32
2022-08-17T03:01:16.004Z,7.45
2022-08-17T03:03:20.907Z,5.18
2022-08-17T03:05:25.728Z,11.88
2022-08-17T03:07:27.495Z,6.50
2022-08-17T03:09:29.258Z,8.70
2022-08-17T03:11:31.117Z,7.60
2022-08-17T03:13:33.284Z,7.63
2022-08-17T03:15:35.770Z,8.45
2022-08-17T03:17:42.695Z,9.18
2022-08-17T03:19:44.921Z,10.88
2022-08-17T03:21:46.717Z,10.05
2022-08-17T03:23:57.739Z,12.00
2022-08-17T03:26:00.460Z,7.97
2022-08-17T03:28:03.698Z,9.52
2022-08-17T03:30:07.249Z,14.63
2022-08-17T03:34:17.190Z,10.20
2022-08-17T03:36:18.904Z,9.38
2022-08-17T03:38:21.366Z,10.57
2022-08-17T03:40:55.841Z,7.30
2022-08-17T03:42:46.138Z,11.48
2022-08-17T03:44:52.787Z,9.07
2022-08-17T03:47:17.878Z,10.57
2022-08-17T03:49:38.381Z,9.95
2022-08-17T03:51:58.557Z,12.88
2022-08-17T03:54:19.195Z,8.88
2022-08-17T03:56:39.594Z,8.75
2022-08-17T03:58:41.316Z,11.05
2022-08-17T04:00:46.280Z,8.63
2022-08-17T04:02:48.419Z,11.05
2022-08-17T04:04:51.184Z,11.32
2022-08-17T04:06:53.620Z,9.95
2022-08-17T04:08:55.860Z,8.50
2022-08-17T04:10:58.254Z,12.82
2022-08-17T04:13:00.681Z,10.38
2022-08-17T04:15:02.976Z,14.50
2022-08-17T04:17:05.610Z,9.07
2022-08-17T04:19:07.417Z,9.68
2022-08-17T04:21:09.650Z,12.80
2022-08-17T04:23:16.870Z,12.20
2022-08-17T04:25:19.786Z,10.52
2022-08-17T04:27:21.639Z,9.10
2022-08-17T04:29:23.687Z,11.63
2022-08-17T04:31:26.355Z,7.85
2022-08-17T04:33:29.822Z,10.50
2022-08-17T04:35:35.217Z,14.18
2022-08-17T04:37:37.047Z,10.82
2022-08-17T04:39:38.825Z,10.55
2022-08-17T04:41:59.372Z,11.40
2022-08-17T04:44:01.366Z,11.00
2022-08-17T04:46:08.822Z,14.38
2022-08-17T04:48:10.568Z,14.23
2022-08-17T04:50:12.553Z,16.15
2022-08-17T04:52:37.480Z,9.93
2022-08-17T04:54:36.319Z,12.98
2022-08-17T04:56:38.735Z,10.32
2022-08-17T04:58:40.850Z,17.60
2022-08-17T05:00:42.654Z,14.13
2022-08-17T05:02:50.473Z,11.93
2022-08-17T05:04:52.630Z,11.50
2022-08-17T05:06:57.236Z,12.00
2022-08-17T05:09:00.013Z,11.93
2022-08-17T05:11:02.075Z,13.20
2022-08-17T05:13:25.167Z,13.68
2022-08-17T05:15:27.911Z,11.85
2022-08-17T05:17:29.939Z,12.23
2022-08-17T05:19:31.867Z,14.40
2022-08-17T05:21:33.704Z,12.90
2022-08-17T05:23:42.916Z,10.65
2022-08-17T05:25:50.856Z,14.98
2022-08-17T05:27:53.327Z,12.60
2022-08-17T05:29:55.098Z,16.65
2022-08-17T05:31:57.089Z,10.70
2022-08-17T05:33:59.311Z,13.73
2022-08-17T05:36:02.541Z,12.85
2022-08-17T05:38:05.488Z,16.77
2022-08-17T05:40:08.002Z,11.32
2022-08-17T05:42:10.321Z,13.07
2022-08-17T05:44:12.699Z,16.65
2022-08-17T05:46:40.809Z,13.07
2022-08-17T05:48:47.547Z,22.30
2022-08-17T05:51:26.589Z,17.83
2022-08-17T05:53:40.352Z,17.52
2022-08-17T05:55:57.585Z,14.43
2022-08-17T05:58:09.205Z,16.88
2022-08-17T06:00:21.764Z,17.02
2022-08-17T06:02:48.029Z,18.08
2022-08-17T06:05:33.725Z,15.27
2022-08-17T06:07:45.325Z,15.05
2022-08-17T06:09:58.444Z,15.40
2022-08-17T06:12:08.074Z,28.20
2022-08-17T06:14:28.212Z,18.38
2022-08-17T06:18:52.014Z,15.95
2022-08-17T06:21:07.987Z,18.92
2022-08-17T06:23:21.667Z,14.68
2022-08-17T06:25:30.758Z,14.25
2022-08-17T06:27:59.887Z,18.25
2022-08-17T06:30:16.079Z,16.17
2022-08-17T06:32:18.438Z,12.63
2022-08-17T06:34:21.019Z,14.02
2022-08-17T06:36:47.816Z,15.57
2022-08-17T06:39:28.635Z,18.25
2022-08-17T06:41:38.149Z,15.30
2022-08-17T06:44:49.695Z,18.98
2022-08-17T06:46:59.336Z,15.52
2022-08-17T06:49:09.729Z,12.80
2022-08-17T06:51:23.798Z,15.70
2022-08-17T06:53:31.815Z,15.00
2022-08-17T06:55:50.736Z,14.98
2022-08-17T06:57:58.293Z,11.60
2022-08-17T07:00:09.108Z,11.65
2022-08-17T07:02:17.273Z,14.27
2022-08-17T07:04:21.764Z,14.05
2022-08-17T07:07:22.170Z,13.43
2022-08-17T07:09:29.870Z,13.13
2022-08-17T07:11:57.849Z,9.88
2022-08-17T07:13:59.605Z,15.48
2022-08-17T07:16:11.222Z,10.13
2022-08-17T07:18:13.185Z,16.30
2022-08-17T07:20:20.193Z,12.68
2022-08-17T07:23:00.765Z,12.48
2022-08-17T07:25:09.502Z,13.35
2022-08-17T07:27:21.669Z,12.95
2022-08-17T07:29:23.762Z,12.80
2022-08-17T07:31:26.844Z,13.85
2022-08-17T07:33:31.243Z,13.80
2022-08-17T07:35:44.553Z,15.20
2022-08-17T07:37:54.616Z,11.80
2022-08-17T07:40:15.314Z,21.73
2022-08-17T07:42:18.619Z,11.57
2022-08-17T07:44:20.576Z,9.95
2022-08-17T07:46:45.687Z,8.80
2022-08-17T07:48:50.967Z,10.02
2022-08-17T07:50:53.362Z,15.73
2022-08-17T07:52:55.746Z,10.60
2022-08-17T07:54:58.317Z,16.10
2022-08-17T07:57:09.150Z,12.10
2022-08-17T07:59:23.508Z,9.50
2022-08-17T08:01:26.139Z,16.52
2022-08-17T08:03:43.797Z,12.45
2022-08-17T08:05:56.485Z,14.55
2022-08-17T08:08:01.621Z,8.55
2022-08-17T08:10:42.728Z,9.18
2022-08-17T08:12:49.073Z,6.90
2022-08-17T08:14:59.209Z,7.75
2022-08-17T08:17:04.597Z,11.93
2022-08-17T08:19:08.427Z,5.25
2022-08-17T08:21:33.588Z,8.35
2022-08-17T08:23:51.280Z,8.95
2022-08-17T08:26:05.469Z,7.55
2022-08-17T08:28:40.598Z,9.80
2022-08-17T08:31:02.123Z,8.18
2022-08-17T08:33:25.543Z,9.95
2022-08-17T08:35:40.717Z,8.95
2022-08-17T08:37:46.604Z,5.63
2022-08-17T08:40:02.725Z,8.00
2022-08-17T08:42:13.482Z,9.15
2022-08-17T08:44:59.535Z,6.35
2022-08-17T08:47:07.695Z,5.68
2022-08-17T08:49:59.505Z,11.38
2022-08-17T08:52:02.121Z,7.22
2022-08-17T08:54:34.561Z,5.70
2022-08-17T08:57:24.284Z,7.60
2022-08-17T08:59:35.676Z,5.32
2022-08-17T09:01:49.858Z,4.30
2022-08-17T09:04:17.934Z,11.32
2022-08-17T09:06:33.219Z,5.40
2022-08-17T09:09:02.877Z,7.50
2022-08-17T09:11:22.990Z,5.22
2022-08-17T09:13:41.682Z,4.47
2022-08-17T09:15:49.609Z,4.97
2022-08-17T09:20:50.361Z,6.60
2022-08-17T09:23:07.286Z,4.95
2022-08-17T09:25:22.682Z,11.50
2022-08-17T09:27:31.376Z,7.88
2022-08-17T09:29:37.012Z,8.00
2022-08-17T09:31:55.962Z,6.50
2022-08-17T09:33:59.422Z,5.93
2022-08-17T09:36:10.265Z,6.45
2022-08-17T09:38:29.204Z,7.30
2022-08-17T09:40:57.167Z,6.93
2022-08-17T09:43:06.649Z,6.72
2022-08-17T09:45:28.628Z,10.70
2022-08-17T09:47:45.550Z,6.28
2022-08-17T09:49:50.969Z,7.43
2022-08-17T09:51:58.345Z,9.73
2022-08-17T09:54:15.134Z,5.60
2022-08-17T09:57:18.145Z,6.05
2022-08-17T09:59:36.527Z,5.25
2022-08-17T10:01:50.568Z,7.53
2022-08-17T10:04:12.662Z,5.68
2022-08-17T10:06:23.606Z,8.85
2022-08-17T10:08:34.822Z,5.80
2022-08-17T10:10:56.329Z,4.72
2022-08-17T10:13:09.799Z,7.40
2022-08-17T10:15:15.025Z,7.18
2022-08-17T10:17:25.152Z,6.63
2022-08-17T10:19:43.914Z,8.63
2022-08-17T10:22:33.001Z,6.53
2022-08-17T10:25:22.935Z,6.20
2022-08-17T10:27:38.326Z,6.72
2022-08-17T10:29:48.568Z,10.70
2022-08-17T10:31:59.712Z,7.38
2022-08-17T10:34:25.613Z,7.80
2022-08-17T10:36:46.243Z,6.75
2022-08-17T10:39:04.716Z,7.85
2022-08-17T10:41:36.878Z,7.97
2022-08-17T10:44:36.659Z,7.55
2022-08-17T10:46:31.410Z,7.57
2022-08-17T10:48:39.074Z,5.50
2022-08-17T10:50:58.176Z,6.40
2022-08-17T10:53:00.052Z,5.40
2022-08-17T10:55:01.751Z,9.75
2022-08-17T10:57:23.418Z,8.73
2022-08-17T10:59:58.983Z,9.43
2022-08-17T11:02:26.231Z,8.07
2022-08-17T11:04:46.586Z,5.85
2022-08-17T11:07:25.940Z,4.38
2022-08-17T11:09:43.489Z,6.88
2022-08-17T11:12:11.211Z,7.90
2022-08-17T11:14:24.139Z,7.93
2022-08-17T11:16:38.142Z,5.30
2022-08-17T11:19:15.271Z,7.20
2022-08-17T11:21:50.509Z,8.20
2022-08-17T11:24:11.788Z,7.35
2022-08-17T11:26:32.165Z,7.03
2022-08-17T11:28:45.029Z,5.93
2022-08-17T11:30:53.839Z,5.22
2022-08-17T11:32:58.505Z,6.15
2022-08-17T11:35:22.345Z,7.10
2022-08-17T11:40:05.582Z,4.13
2022-08-17T11:42:26.627Z,5.43
2022-08-17T11:44:46.769Z,6.75
2022-08-17T11:47:19.039Z,5.65
2022-08-17T11:49:54.644Z,6.20
2022-08-17T11:52:00.334Z,11.82
2022-08-17T11:54:36.253Z,8.18
2022-08-17T11:56:47.203Z,9.48
2022-08-17T11:58:49.435Z,7.55
2022-08-17T12:00:58.520Z,7.22
2022-08-17T12:03:22.433Z,6.60
2022-08-17T12:07:32.764Z,8.20
2022-08-17T12:09:39.561Z,8.50
2022-08-17T12:12:11.123Z,6.55
2022-08-17T12:14:20.183Z,9.27
2022-08-17T12:18:34.019Z,7.68
2022-08-17T12:20:40.072Z,5.70
2022-08-17T12:23:14.095Z,6.20
2022-08-17T12:25:49.484Z,6.00
2022-08-17T12:28:05.108Z,6.07
2022-08-17T12:30:14.007Z,8.10
2022-08-17T12:32:18.401Z,7.78
2022-08-17T12:34:24.356Z,5.72
2022-08-17T12:36:28.451Z,10.38
2022-08-17T12:38:34.681Z,7.07
2022-08-17T12:40:37.708Z,4.13
2022-08-17T12:42:40.474Z,5.90
2022-08-17T12:44:50.440Z,4.60
2022-08-17T12:47:04.861Z,6.57
2022-08-17T12:49:29.064Z,5.78
2022-08-17T12:51:31.907Z,5.15
2022-08-17T12:53:37.492Z,8.98
2022-08-17T12:55:40.522Z,6.50
2022-08-17T12:57:44.838Z,6.32
2022-08-17T12:59:50.951Z,8.50
2022-08-17T13:01:53.983Z,6.18
2022-08-17T13:03:59.833Z,5.45
2022-08-17T13:06:06.354Z,5.80
2022-08-17T13:08:27.467Z,6.43
2022-08-17T13:10:33.310Z,5.95
2022-08-17T13:12:36.362Z,8.38
2022-08-17T13:14:38.245Z,5.80
2022-08-17T13:16:40.324Z,5.00
2022-08-17T13:18:44.199Z,5.53
2022-08-17T13:20:53.472Z,4.50
2022-08-17T13:22:58.123Z,4.53
2022-08-17T13:25:07.020Z,5.68
2022-08-17T13:27:12.608Z,5.20
2022-08-17T13:29:38.991Z,5.82
2022-08-17T13:31:52.388Z,4.82
2022-08-17T13:34:31.391Z,4.20
2022-08-17T13:36:35.092Z,4.85
2022-08-17T13:38:41.314Z,5.80
2022-08-17T13:40:50.256Z,4.20
2022-08-17T13:42:54.190Z,5.78
2022-08-17T13:44:56.707Z,4.22
2022-08-17T13:47:00.925Z,7.97
2022-08-17T13:49:06.732Z,4.00
2022-08-17T13:51:20.141Z,5.82
2022-08-17T13:53:28.162Z,6.60
2022-08-17T13:55:33.134Z,5.70
2022-08-17T13:57:35.890Z,6.30
2022-08-17T13:59:55.249Z,4.50
2022-08-17T14:01:58.224Z,5.45
2022-08-17T14:04:03.076Z,6.25
2022-08-17T14:06:05.172Z,10.55
2022-08-17T14:08:07.348Z,6.22
2022-08-17T14:10:17.522Z,3.90
2022-08-17T14:12:25.062Z,4.00
2022-08-17T14:14:27.247Z,7.47
2022-08-17T14:16:29.660Z,6.65
2022-08-17T14:18:43.343Z,5.53
2022-08-17T14:20:56.702Z,4.25
2022-08-17T14:22:58.618Z,4.95
2022-08-17T14:25:01.843Z,7.18
2022-08-17T14:29:15.150Z,5.03
2022-08-17T14:31:17.438Z,4.53
2022-08-17T14:33:22.617Z,7.50
2022-08-17T14:35:24.952Z,6.93
2022-08-17T14:37:28.342Z,6.60
2022-08-17T14:39:30.149Z,5.68
2022-08-17T14:41:31.955Z,4.82
2022-08-17T14:43:34.871Z,5.25
2022-08-17T14:45:37.202Z,5.43
2022-08-17T14:47:41.396Z,6.43
2022-08-17T14:49:43.966Z,6.18
2022-08-17T14:51:49.638Z,6.82
2022-08-17T14:53:51.507Z,4.18
2022-08-17T14:55:53.406Z,4.88
2022-08-17T14:57:55.457Z,14.30
2022-08-17T14:59:57.799Z,12.70
2022-08-17T15:02:00.621Z,5.40
2022-08-17T15:04:02.380Z,4.13
2022-08-17T15:06:04.317Z,4.10
2022-08-17T15:08:11.665Z,8.76
2022-08-17T15:10:14.844Z,7.47
2022-08-17T15:14:23.266Z,9.70
2022-08-17T15:16:27.140Z,4.78
2022-08-17T15:18:30.358Z,9.15
2022-08-17T15:20:32.471Z,4.47
2022-08-17T15:22:34.204Z,5.88
2022-08-17T15:24:35.950Z,4.85
2022-08-17T15:26:38.209Z,6.13
2022-08-17T15:28:39.975Z,7.05
2022-08-17T15:30:45.106Z,5.28
2022-08-17T15:32:54.423Z,6.88
2022-08-17T15:34:59.412Z,4.03
2022-08-17T15:37:03.304Z,8.63
2022-08-17T15:39:05.127Z,6.95
2022-08-17T15:41:09.074Z,5.13
2022-08-17T15:43:24.775Z,5.05
2022-08-17T15:45:30.715Z,5.60
2022-08-17T15:47:32.686Z,5.45
2022-08-17T15:49:34.381Z,4.43
2022-08-17T15:51:36.508Z,6.05
2022-08-17T15:53:39.787Z,4.47
2022-08-17T15:55:42.079Z,7.60
2022-08-17T15:57:45.061Z,3.23
2022-08-17T15:59:52.044Z,6.55
2022-08-17T16:03:09.880Z,4.47
2022-08-17T16:04:29.806Z,5.18
2022-08-17T16:06:32.977Z,4.03
2022-08-17T16:08:35.995Z,7.50
2022-08-17T16:10:38.102Z,7.55
2022-08-17T16:12:40.660Z,5.57
2022-08-17T16:14:43.567Z,7.18
2022-08-17T16:16:45.398Z,3.35
2022-08-17T16:18:47.444Z,6.45
2022-08-17T16:20:57.068Z,6.43
2022-08-17T16:22:59.124Z,4.47
2022-08-17T16:25:04.620Z,7.35
2022-08-17T16:27:12.501Z,4.75
2022-08-17T16:29:14.559Z,4.05
2022-08-17T16:31:16.718Z,3.47
2022-08-17T16:33:18.651Z,3.55
2022-08-17T16:35:22.617Z,2.78
2022-08-17T16:37:24.405Z,3.97
2022-08-17T16:39:31.494Z,4.57
2022-08-17T16:41:45.919Z,6.82
2022-08-17T16:43:51.099Z,6.15
2022-08-17T16:45:52.943Z,8.05
2022-08-17T16:47:59.361Z,7.72
2022-08-17T16:50:03.676Z,4.05
2022-08-17T16:52:12.084Z,6.00
2022-08-17T16:54:17.588Z,4.13
2022-08-17T16:56:20.036Z,6.10
2022-08-17T16:58:21.814Z,7.40
2022-08-17T17:00:23.904Z,3.03
2022-08-17T17:02:27.259Z,7.35
2022-08-17T17:04:29.018Z,4.20
2022-08-17T17:06:39.953Z,4.25
2022-08-17T17:08:48.500Z,5.82
2022-08-17T17:10:52.742Z,3.38
2022-08-17T17:13:01.546Z,3.85
2022-08-17T17:15:06.647Z,8.18
2022-08-17T17:17:25.440Z,4.57
2022-08-17T17:19:34.930Z,5.65
2022-08-17T17:21:46.343Z,6.97
2022-08-17T17:23:56.844Z,6.10
2022-08-17T17:26:22.734Z,4.68
2022-08-17T17:28:31.395Z,6.20
2022-08-17T17:30:38.261Z,5.20
2022-08-17T17:32:45.888Z,4.45
2022-08-17T17:35:06.040Z,6.68
2022-08-17T17:37:12.845Z,5.82
2022-08-17T17:39:23.884Z,5.38
2022-08-17T17:41:31.860Z,7.22
2022-08-17T17:43:41.106Z,5.28
2022-08-17T17:46:26.615Z,9.25
2022-08-17T17:48:31.529Z,7.78
2022-08-17T17:50:37.724Z,5.75
2022-08-17T17:52:41.351Z,5.28
2022-08-17T17:54:46.276Z,4.97
2022-08-17T17:57:03.508Z,5.82
2022-08-17T17:59:12.714Z,5.43
2022-08-17T18:01:42.231Z,6.15
2022-08-17T18:03:47.013Z,8.25
2022-08-17T18:06:00.624Z,8.25
2022-08-17T18:08:37.459Z,6.93
2022-08-17T18:10:51.607Z,4.93
2022-08-17T18:13:02.800Z,7.15
2022-08-17T18:15:22.051Z,8.30
2022-08-17T18:17:24.222Z,8.18
2022-08-17T18:19:29.137Z,5.97
2022-08-17T18:21:44.540Z,5.05
2022-08-17T18:23:48.413Z,7.60
2022-08-17T18:25:53.651Z,10.35
2022-08-17T18:27:58.388Z,5.10
2022-08-17T18:30:27.822Z,5.05
2022-08-17T18:32:41.007Z,5.15
2022-08-17T18:34:47.725Z,5.15
2022-08-17T18:36:50.675Z,5.05
2022-08-17T18:39:14.880Z,5.90
2022-08-17T18:41:20.807Z,8.50
2022-08-17T18:43:53.136Z,6.00
2022-08-17T18:45:57.383Z,5.57
2022-08-17T18:50:22.205Z,6.60
2022-08-17T18:52:30.403Z,6.15
2022-08-17T18:54:32.451Z,5.07
2022-08-17T18:56:36.613Z,5.30
2022-08-17T18:58:38.626Z,5.45
2022-08-17T19:00:42.479Z,4.10
2022-08-17T19:03:00.125Z,9.65
2022-08-17T19:05:08.030Z,5.88
2022-08-17T19:07:24.489Z,4.55
2022-08-17T19:09:49.178Z,4.35
2022-08-17T19:11:51.364Z,5.72
2022-08-17T19:13:57.521Z,4.25
2022-08-17T19:16:14.069Z,5.43
2022-08-17T19:18:30.552Z,6.25
2022-08-17T19:20:59.958Z,5.63
2022-08-17T19:23:08.418Z,3.60
2022-08-17T19:25:19.898Z,4.45
2022-08-17T19:27:41.981Z,4.88
2022-08-17T19:30:08.411Z,5.00
2022-08-17T19:32:11.668Z,4.45
2022-08-17T19:34:15.047Z,4.10
2022-08-17T19:38:54.461Z,5.07
2022-08-17T19:41:00.158Z,6.18
2022-08-17T19:43:28.978Z,6.20
2022-08-17T19:45:49.809Z,6.15
2022-08-17T19:48:10.109Z,5.38
2022-08-17T19:50:38.533Z,4.88
2022-08-17T19:52:43.255Z,8.57
2022-08-17T19:54:55.732Z,5.88
2022-08-17T19:57:18.062Z,4.50
2022-08-17T19:59:26.800Z,4.95
2022-08-17T20:02:01.083Z,7.00
2022-08-17T20:04:32.375Z,5.28
2022-08-17T20:06:38.010Z,5.55
2022-08-17T20:08:54.381Z,6.45
2022-08-17T20:11:08.852Z,5.93
2022-08-17T20:13:18.818Z,7.60
2022-08-17T20:15:40.143Z,6.32
2022-08-17T20:17:45.261Z,4.32
2022-08-17T20:20:02.012Z,3.83
2022-08-17T20:22:06.637Z,6.30
2022-08-17T20:24:31.670Z,5.65
2022-08-17T20:27:01.203Z,5.50
2022-08-17T20:29:14.994Z,7.95
2022-08-17T20:33:38.026Z,5.97
2022-08-17T20:35:40.848Z,5.68
2022-08-17T20:37:54.456Z,7.22
2022-08-17T20:39:56.324Z,7.43
2022-08-17T20:42:12.835Z,4.95
2022-08-17T20:44:33.143Z,5.63
2022-08-17T20:46:38.454Z,5.28
2022-08-17T20:48:45.190Z,5.75
2022-08-17T20:50:51.907Z,6.28
2022-08-17T20:53:13.528Z,6.57
2022-08-17T20:55:52.009Z,6.55
2022-08-17T20:57:54.900Z,4.38
2022-08-17T21:00:18.422Z,6.57
2022-08-17T21:02:22.132Z,5.50
2022-08-17T21:04:47.651Z,6.68
2022-08-17T21:07:23.384Z,5.60
2022-08-17T21:09:30.036Z,4.30
2022-08-17T21:11:57.009Z,6.72
2022-08-17T21:13:58.237Z,3.80
2022-08-17T21:16:07.661Z,5.03
2022-08-17T21:18:39.107Z,6.50
2022-08-17T21:20:47.193Z,6.63
2022-08-17T21:23:01.606Z,6.00
2022-08-17T21:25:25.414Z,7.28
2022-08-17T21:27:46.619Z,3.83
2022-08-17T21:30:06.426Z,4.93
2022-08-17T21:32:09.644Z,7.25
2022-08-17T21:34:15.212Z,8.75
2022-08-17T21:36:24.076Z,6.38
2022-08-17T21:38:53.383Z,5.93
2022-08-17T21:40:58.915Z,5.93
2022-08-17T21:43:24.335Z,5.65
2022-08-17T21:45:31.935Z,5.93
2022-08-17T21:47:34.956Z,4.50
2022-08-17T21:49:38.057Z,5.47
2022-08-17T21:51:45.926Z,7.32
2022-08-17T21:53:54.061Z,5.47
2022-08-17T21:55:56.332Z,4.97
2022-08-17T21:58:14.586Z,5.20
2022-08-17T22:00:25.290Z,5.45
2022-08-17T22:02:37.405Z,6.85
2022-08-17T22:04:41.586Z,9.68
2022-08-17T22:06:56.737Z,5.90
2022-08-17T22:09:07.392Z,5.40
2022-08-17T22:11:09.183Z,5.25
2022-08-17T22:13:20.710Z,4.80
2022-08-17T22:15:23.725Z,4.78
2022-08-17T22:17:37.092Z,6.70
2022-08-17T22:19:39.288Z,5.80
2022-08-17T22:21:41.070Z,5.55
2022-08-17T22:24:03.316Z,5.65
2022-08-17T22:26:09.608Z,6.03
2022-08-17T22:28:38.399Z,6.05
2022-08-17T22:30:41.967Z,10.57
2022-08-17T22:32:46.191Z,7.72
2022-08-17T22:35:26.145Z,6.22
2022-08-17T22:37:29.075Z,10.05
2022-08-17T22:39:40.474Z,7.75
2022-08-17T22:41:52.151Z,5.95
2022-08-17T22:43:55.144Z,5.25
2022-08-17T22:45:59.363Z,6.88
2022-08-17T22:48:02.212Z,6.50
2022-08-17T22:50:13.587Z,5.82
2022-08-17T22:52:15.213Z,5.80
2022-08-17T22:54:37.740Z,11.98
2022-08-17T22:57:12.135Z,7.13
2022-08-17T22:59:33.733Z,7.53
2022-08-17T23:01:35.625Z,4.10
2022-08-17T23:03:53.430Z,4.20
2022-08-17T23:06:08.192Z,8.75
2022-08-17T23:08:11.710Z,4.55
2022-08-17T23:12:22.386Z,7.38
2022-08-17T23:14:31.539Z,4.85
2022-08-17T23:16:33.472Z,5.22
2022-08-17T23:18:36.023Z,4.43
2022-08-17T23:20:39.694Z,6.35
2022-08-17T23:22:51.095Z,6.85
2022-08-17T23:24:54.517Z,5.28
2022-08-17T23:26:57.535Z,5.60
2022-08-17T23:29:02.462Z,5.78
2022-08-17T23:31:07.970Z,6.00
2022-08-17T23:33:21.709Z,6.55
2022-08-17T23:35:39.904Z,5.32
2022-08-17T23:37:42.883Z,5.68
2022-08-17T23:39:45.536Z,5.28
2022-08-17T23:41:47.643Z,7.03
2022-08-17T23:43:51.850Z,7.90
2022-08-17T23:45:59.644Z,9.40
2022-08-17T23:48:02.435Z,7.45
2022-08-17T23:50:05.577Z,5.63
2022-08-17T23:52:10.053Z,7.30
2022-08-17T23:54:16.232Z,5.93
2022-08-17T23:56:24.039Z,4.90
2022-08-17T23:58:26.234Z,7.85
